sensor_id;sensor_type;location;lat;lon;timestamp;pressure;altitude;pressure_sealevel;temperature;humidity
24558;BME280;12726;49.148;8.582;2023-05-21T00:02:26;99995.00;;;15.74;87.70
24558;BME280;12726;49.148;8.582;2023-05-21T00:05:12;99998.56;;;15.79;88.07
24558;BME280;12726;49.148;8.582;2023-05-21T00:08:00;100020.44;;;15.94;87.92
24558;BME280;12726;49.148;8.582;2023-05-21T00:10:45;100023.94;;;15.90;88.14
24558;BME280;12726;49.148;8.582;2023-05-21T00:13:30;100010.28;;;15.85;88.44
24558;BME280;12726;49.148;8.582;2023-05-21T00:16:17;100015.69;;;15.80;88.96
24558;BME280;12726;49.148;8.582;2023-05-21T00:19:03;100015.38;;;15.76;89.20
24558;BME280;12726;49.148;8.582;2023-05-21T00:21:49;100015.94;;;15.78;89.41
24558;BME280;12726;49.148;8.582;2023-05-21T00:24:34;99993.31;;;15.68;89.47
24558;BME280;12726;49.148;8.582;2023-05-21T00:27:20;99991.63;;;15.61;89.64
24558;BME280;12726;49.148;8.582;2023-05-21T00:30:06;100004.22;;;15.73;89.94
24558;BME280;12726;49.148;8.582;2023-05-21T00:32:53;100011.22;;;15.69;89.77
24558;BME280;12726;49.148;8.582;2023-05-21T00:35:38;100010.41;;;15.68;90.13
24558;BME280;12726;49.148;8.582;2023-05-21T00:38:23;100002.78;;;15.65;90.43
24558;BME280;12726;49.148;8.582;2023-05-21T00:41:10;99996.47;;;15.59;90.73
24558;BME280;12726;49.148;8.582;2023-05-21T00:43:56;99989.72;;;15.62;90.73
24558;BME280;12726;49.148;8.582;2023-05-21T00:46:43;99996.53;;;15.64;90.66
24558;BME280;12726;49.148;8.582;2023-05-21T00:49:33;99954.75;;;15.44;90.50
24558;BME280;12726;49.148;8.582;2023-05-21T00:52:18;99996.78;;;15.63;91.18
24558;BME280;12726;49.148;8.582;2023-05-21T00:55:05;99984.81;;;15.59;91.51
24558;BME280;12726;49.148;8.582;2023-05-21T00:57:51;99985.31;;;15.56;91.74
24558;BME280;12726;49.148;8.582;2023-05-21T01:00:36;99991.53;;;15.56;91.51
24558;BME280;12726;49.148;8.582;2023-05-21T01:03:23;99972.19;;;15.48;91.97
24558;BME280;12726;49.148;8.582;2023-05-21T01:06:10;99986.66;;;15.53;92.22
24558;BME280;12726;49.148;8.582;2023-05-21T01:08:57;99988.19;;;15.49;92.20
24558;BME280;12726;49.148;8.582;2023-05-21T01:11:45;99969.38;;;15.43;92.33
24558;BME280;12726;49.148;8.582;2023-05-21T01:14:31;99984.66;;;15.49;92.53
24558;BME280;12726;49.148;8.582;2023-05-21T01:17:17;99972.19;;;15.48;92.59
24558;BME280;12726;49.148;8.582;2023-05-21T01:20:07;99973.50;;;15.45;92.91
24558;BME280;12726;49.148;8.582;2023-05-21T01:22:55;99974.31;;;15.46;92.98
24558;BME280;12726;49.148;8.582;2023-05-21T01:25:41;99960.72;;;15.41;92.95
24558;BME280;12726;49.148;8.582;2023-05-21T01:28:27;99963.66;;;15.39;93.07
24558;BME280;12726;49.148;8.582;2023-05-21T01:31:18;99950.81;;;15.29;93.31
24558;BME280;12726;49.148;8.582;2023-05-21T01:34:10;99966.63;;;15.38;93.57
24558;BME280;12726;49.148;8.582;2023-05-21T01:37:02;99950.50;;;15.26;93.95
24558;BME280;12726;49.148;8.582;2023-05-21T01:39:56;99960.34;;;15.32;94.05
24558;BME280;12726;49.148;8.582;2023-05-21T01:42:44;99944.25;;;15.25;94.47
24558;BME280;12726;49.148;8.582;2023-05-21T01:45:32;99960.09;;;15.34;94.32
24558;BME280;12726;49.148;8.582;2023-05-21T01:48:18;99926.03;;;15.21;94.18
24558;BME280;12726;49.148;8.582;2023-05-21T01:51:05;99934.72;;;15.23;94.49
24558;BME280;12726;49.148;8.582;2023-05-21T01:53:50;99944.50;;;15.24;94.67
24558;BME280;12726;49.148;8.582;2023-05-21T01:56:37;99952.41;;;15.25;94.71
24558;BME280;12726;49.148;8.582;2023-05-21T01:59:23;99930.63;;;15.20;94.93
24558;BME280;12726;49.148;8.582;2023-05-21T02:02:08;99944.19;;;15.20;95.08
24558;BME280;12726;49.148;8.582;2023-05-21T02:04:54;99932.72;;;15.13;95.18
24558;BME280;12726;49.148;8.582;2023-05-21T02:07:39;99951.00;;;15.23;95.50
24558;BME280;12726;49.148;8.582;2023-05-21T02:10:27;99938.13;;;15.13;95.57
24558;BME280;12726;49.148;8.582;2023-05-21T02:13:13;99948.75;;;15.15;96.10
24558;BME280;12726;49.148;8.582;2023-05-21T02:15:59;99923.28;;;14.94;96.19
24558;BME280;12726;49.148;8.582;2023-05-21T02:18:44;99935.13;;;15.10;96.30
24558;BME280;12726;49.148;8.582;2023-05-21T02:21:31;99947.56;;;15.06;96.35
24558;BME280;12726;49.148;8.582;2023-05-21T02:24:16;99933.09;;;15.00;96.45
24558;BME280;12726;49.148;8.582;2023-05-21T02:27:01;99948.31;;;15.01;96.79
24558;BME280;12726;49.148;8.582;2023-05-21T02:29:50;99945.00;;;14.99;96.83
24558;BME280;12726;49.148;8.582;2023-05-21T02:32:36;99937.91;;;14.93;97.67
24558;BME280;12726;49.148;8.582;2023-05-21T02:35:22;99940.06;;;14.91;97.62
24558;BME280;12726;49.148;8.582;2023-05-21T02:38:07;99934.06;;;14.89;97.88
24558;BME280;12726;49.148;8.582;2023-05-21T02:40:53;99932.84;;;14.80;98.01
24558;BME280;12726;49.148;8.582;2023-05-21T02:43:39;99940.75;;;14.81;98.43
24558;BME280;12726;49.148;8.582;2023-05-21T02:46:25;99923.50;;;14.71;98.63
24558;BME280;12726;49.148;8.582;2023-05-21T02:49:11;99942.88;;;14.79;98.80
24558;BME280;12726;49.148;8.582;2023-05-21T02:51:57;99940.09;;;14.74;99.05
24558;BME280;12726;49.148;8.582;2023-05-21T02:54:42;99910.34;;;14.58;99.04
24558;BME280;12726;49.148;8.582;2023-05-21T02:57:27;99931.66;;;14.71;99.32
24558;BME280;12726;49.148;8.582;2023-05-21T03:00:13;99940.88;;;14.70;99.24
24558;BME280;12726;49.148;8.582;2023-05-21T03:03:00;99947.03;;;14.65;99.64
24558;BME280;12726;49.148;8.582;2023-05-21T03:05:46;99926.59;;;14.58;99.99
24558;BME280;12726;49.148;8.582;2023-05-21T03:08:32;99930.47;;;14.62;100.00
24558;BME280;12726;49.148;8.582;2023-05-21T03:11:17;99935.53;;;14.58;100.00
24558;BME280;12726;49.148;8.582;2023-05-21T03:14:03;99929.31;;;14.58;100.00
24558;BME280;12726;49.148;8.582;2023-05-21T03:16:49;99914.25;;;14.45;100.00
24558;BME280;12726;49.148;8.582;2023-05-21T03:19:36;99920.72;;;14.44;100.00
24558;BME280;12726;49.148;8.582;2023-05-21T03:22:22;99930.56;;;14.50;100.00
24558;BME280;12726;49.148;8.582;2023-05-21T03:25:09;99916.06;;;14.39;100.00
24558;BME280;12726;49.148;8.582;2023-05-21T03:27:54;99917.13;;;14.38;100.00
24558;BME280;12726;49.148;8.582;2023-05-21T03:30:40;99919.59;;;14.40;100.00
24558;BME280;12726;49.148;8.582;2023-05-21T03:33:29;99914.88;;;14.35;100.00
24558;BME280;12726;49.148;8.582;2023-05-21T03:36:15;99918.91;;;14.33;100.00
24558;BME280;12726;49.148;8.582;2023-05-21T03:39:01;99919.50;;;14.35;100.00
24558;BME280;12726;49.148;8.582;2023-05-21T03:41:47;99913.97;;;14.30;100.00
24558;BME280;12726;49.148;8.582;2023-05-21T03:44:33;99923.75;;;14.31;100.00
24558;BME280;12726;49.148;8.582;2023-05-21T03:47:18;99918.84;;;14.28;100.00
24558;BME280;12726;49.148;8.582;2023-05-21T03:50:05;99913.34;;;14.23;100.00
24558;BME280;12726;49.148;8.582;2023-05-21T03:52:51;99924.50;;;14.26;100.00
24558;BME280;12726;49.148;8.582;2023-05-21T03:55:37;99909.16;;;14.15;100.00
24558;BME280;12726;49.148;8.582;2023-05-21T03:58:23;99896.88;;;14.07;100.00
24558;BME280;12726;49.148;8.582;2023-05-21T04:01:09;99922.81;;;14.20;100.00
24558;BME280;12726;49.148;8.582;2023-05-21T04:03:54;99917.03;;;14.17;100.00
24558;BME280;12726;49.148;8.582;2023-05-21T04:06:40;99935.81;;;14.23;100.00
24558;BME280;12726;49.148;8.582;2023-05-21T04:09:27;99921.06;;;14.14;100.00
24558;BME280;12726;49.148;8.582;2023-05-21T04:12:12;99925.69;;;14.14;100.00
24558;BME280;12726;49.148;8.582;2023-05-21T04:14:58;99938.53;;;14.23;100.00
24558;BME280;12726;49.148;8.582;2023-05-21T04:17:45;99927.56;;;14.13;100.00
24558;BME280;12726;49.148;8.582;2023-05-21T04:20:31;99922.63;;;14.10;100.00
24558;BME280;12726;49.148;8.582;2023-05-21T04:23:16;99931.31;;;14.12;100.00
24558;BME280;12726;49.148;8.582;2023-05-21T04:26:03;99947.16;;;14.20;100.00
24558;BME280;12726;49.148;8.582;2023-05-21T04:28:49;99944.13;;;14.17;100.00
24558;BME280;12726;49.148;8.582;2023-05-21T04:31:34;99942.63;;;14.09;100.00
24558;BME280;12726;49.148;8.582;2023-05-21T04:34:20;99962.00;;;14.18;100.00
24558;BME280;12726;49.148;8.582;2023-05-21T04:37:05;99949.28;;;14.18;100.00
24558;BME280;12726;49.148;8.582;2023-05-21T04:39:52;99930.34;;;14.01;100.00
24558;BME280;12726;49.148;8.582;2023-05-21T04:42:39;99965.28;;;14.20;100.00
24558;BME280;12726;49.148;8.582;2023-05-21T04:45:25;99931.22;;;14.07;100.00
24558;BME280;12726;49.148;8.582;2023-05-21T04:48:11;99941.66;;;14.15;100.00
24558;BME280;12726;49.148;8.582;2023-05-21T04:50:59;99954.69;;;14.18;100.00
24558;BME280;12726;49.148;8.582;2023-05-21T04:53:44;99952.00;;;14.18;100.00
24558;BME280;12726;49.148;8.582;2023-05-21T04:56:31;99948.53;;;14.23;100.00
24558;BME280;12726;49.148;8.582;2023-05-21T04:59:18;99969.63;;;14.37;100.00
24558;BME280;12726;49.148;8.582;2023-05-21T05:02:04;99970.84;;;14.30;100.00
24558;BME280;12726;49.148;8.582;2023-05-21T05:04:49;99976.38;;;14.35;100.00
24558;BME280;12726;49.148;8.582;2023-05-21T05:07:34;99967.31;;;14.29;100.00
24558;BME280;12726;49.148;8.582;2023-05-21T05:10:20;99946.34;;;14.20;100.00
24558;BME280;12726;49.148;8.582;2023-05-21T05:13:05;99961.00;;;14.24;100.00
24558;BME280;12726;49.148;8.582;2023-05-21T05:15:52;99970.69;;;14.36;100.00
24558;BME280;12726;49.148;8.582;2023-05-21T05:18:37;99956.59;;;14.34;100.00
24558;BME280;12726;49.148;8.582;2023-05-21T05:21:23;99967.41;;;14.51;100.00
24558;BME280;12726;49.148;8.582;2023-05-21T05:24:08;99952.41;;;14.43;100.00
24558;BME280;12726;49.148;8.582;2023-05-21T05:26:54;99956.81;;;14.49;100.00
24558;BME280;12726;49.148;8.582;2023-05-21T05:29:39;99951.78;;;14.58;100.00
24558;BME280;12726;49.148;8.582;2023-05-21T05:32:26;99988.13;;;14.79;100.00
24558;BME280;12726;49.148;8.582;2023-05-21T05:35:11;99956.03;;;14.71;100.00
24558;BME280;12726;49.148;8.582;2023-05-21T05:37:57;99974.84;;;14.99;100.00
24558;BME280;12726;49.148;8.582;2023-05-21T05:40:42;99971.25;;;15.15;100.00
24558;BME280;12726;49.148;8.582;2023-05-21T05:43:27;99968.97;;;15.29;99.18
24558;BME280;12726;49.148;8.582;2023-05-21T05:46:12;99946.78;;;15.32;98.32
24558;BME280;12726;49.148;8.582;2023-05-21T05:48:59;99969.50;;;15.75;96.26
24558;BME280;12726;49.148;8.582;2023-05-21T05:51:45;99947.53;;;15.76;94.84
24558;BME280;12726;49.148;8.582;2023-05-21T05:54:32;99970.59;;;16.05;93.81
24558;BME280;12726;49.148;8.582;2023-05-21T05:57:18;99971.88;;;16.35;93.35
24558;BME280;12726;49.148;8.582;2023-05-21T06:00:04;99965.50;;;16.56;90.68
24558;BME280;12726;49.148;8.582;2023-05-21T06:02:49;99964.31;;;16.79;88.65
24558;BME280;12726;49.148;8.582;2023-05-21T06:05:36;99967.63;;;16.91;88.23
24558;BME280;12726;49.148;8.582;2023-05-21T06:08:21;99958.41;;;16.92;86.98
24558;BME280;12726;49.148;8.582;2023-05-21T06:11:07;99969.41;;;17.17;87.45
24558;BME280;12726;49.148;8.582;2023-05-21T06:13:54;99970.81;;;17.30;85.98
24558;BME280;12726;49.148;8.582;2023-05-21T06:16:39;99970.59;;;17.47;85.14
24558;BME280;12726;49.148;8.582;2023-05-21T06:19:25;99973.38;;;17.72;84.84
24558;BME280;12726;49.148;8.582;2023-05-21T06:22:11;99971.78;;;17.96;82.80
24558;BME280;12726;49.148;8.582;2023-05-21T06:24:56;99969.63;;;18.24;81.18
24558;BME280;12726;49.148;8.582;2023-05-21T06:27:42;99982.69;;;18.57;80.52
24558;BME280;12726;49.148;8.582;2023-05-21T06:30:27;99970.94;;;18.62;78.30
24558;BME280;12726;49.148;8.582;2023-05-21T06:33:12;99974.09;;;19.09;76.53
24558;BME280;12726;49.148;8.582;2023-05-21T06:35:58;99976.41;;;19.46;73.92
24558;BME280;12726;49.148;8.582;2023-05-21T06:38:44;99990.72;;;19.72;73.40
24558;BME280;12726;49.148;8.582;2023-05-21T06:41:30;99982.06;;;19.99;72.23
24558;BME280;12726;49.148;8.582;2023-05-21T06:44:16;99988.91;;;20.64;70.70
24558;BME280;12726;49.148;8.582;2023-05-21T06:47:01;99981.75;;;21.21;68.58
24558;BME280;12726;49.148;8.582;2023-05-21T06:49:47;99979.78;;;21.64;65.78
24558;BME280;12726;49.148;8.582;2023-05-21T06:52:32;99988.53;;;22.04;64.20
24558;BME280;12726;49.148;8.582;2023-05-21T06:55:19;99974.75;;;22.41;63.08
24558;BME280;12726;49.148;8.582;2023-05-21T06:58:04;99979.66;;;22.44;62.25
24558;BME280;12726;49.148;8.582;2023-05-21T07:00:49;99983.41;;;22.48;61.83
24558;BME280;12726;49.148;8.582;2023-05-21T07:03:35;99979.44;;;22.87;61.22
24558;BME280;12726;49.148;8.582;2023-05-21T07:06:21;99983.47;;;23.30;59.62
24558;BME280;12726;49.148;8.582;2023-05-21T07:09:06;99988.88;;;23.49;58.31
24558;BME280;12726;49.148;8.582;2023-05-21T07:11:53;99988.59;;;23.37;57.96
24558;BME280;12726;49.148;8.582;2023-05-21T07:14:38;99984.69;;;23.38;58.55
24558;BME280;12726;49.148;8.582;2023-05-21T07:17:24;99990.25;;;23.74;58.41
24558;BME280;12726;49.148;8.582;2023-05-21T07:20:10;99989.91;;;23.89;55.85
24558;BME280;12726;49.148;8.582;2023-05-21T07:22:56;99989.66;;;23.99;56.66
24558;BME280;12726;49.148;8.582;2023-05-21T07:25:41;99986.16;;;23.85;55.27
24558;BME280;12726;49.148;8.582;2023-05-21T07:28:28;99981.13;;;23.65;56.21
24558;BME280;12726;49.148;8.582;2023-05-21T07:31:13;99977.91;;;23.35;57.35
24558;BME280;12726;49.148;8.582;2023-05-21T07:33:59;99978.09;;;22.84;58.41
24558;BME280;12726;49.148;8.582;2023-05-21T07:36:44;99978.47;;;22.32;61.26
24558;BME280;12726;49.148;8.582;2023-05-21T07:39:30;99965.28;;;22.01;62.60
24558;BME280;12726;49.148;8.582;2023-05-21T07:42:15;99968.91;;;22.15;62.59
24558;BME280;12726;49.148;8.582;2023-05-21T07:45:02;99971.44;;;22.25;62.53
24558;BME280;12726;49.148;8.582;2023-05-21T07:47:47;99966.84;;;22.07;62.47
24558;BME280;12726;49.148;8.582;2023-05-21T07:50:32;99961.34;;;22.07;63.32
24558;BME280;12726;49.148;8.582;2023-05-21T07:53:18;99954.09;;;21.79;63.20
24558;BME280;12726;49.148;8.582;2023-05-21T07:56:04;99955.19;;;21.78;63.84
24558;BME280;12726;49.148;8.582;2023-05-21T07:58:49;99952.63;;;21.49;65.64
24558;BME280;12726;49.148;8.582;2023-05-21T08:01:36;99952.53;;;21.73;64.28
24558;BME280;12726;49.148;8.582;2023-05-21T08:04:21;99956.09;;;21.73;64.52
24558;BME280;12726;49.148;8.582;2023-05-21T08:07:07;99961.59;;;21.73;64.93
24558;BME280;12726;49.148;8.582;2023-05-21T08:09:52;99953.34;;;22.57;62.21
24558;BME280;12726;49.148;8.582;2023-05-21T08:12:38;99949.13;;;23.19;59.76
24558;BME280;12726;49.148;8.582;2023-05-21T08:15:23;99956.59;;;23.91;57.42
24558;BME280;12726;49.148;8.582;2023-05-21T08:18:09;99951.50;;;24.42;55.76
24558;BME280;12726;49.148;8.582;2023-05-21T08:20:55;99955.50;;;24.98;54.80
24558;BME280;12726;49.148;8.582;2023-05-21T08:23:41;99946.25;;;25.68;51.46
24558;BME280;12726;49.148;8.582;2023-05-21T08:26:27;99951.91;;;25.97;50.76
24558;BME280;12726;49.148;8.582;2023-05-21T08:29:12;99953.72;;;26.28;49.91
24558;BME280;12726;49.148;8.582;2023-05-21T08:31:57;99950.16;;;26.74;48.74
24558;BME280;12726;49.148;8.582;2023-05-21T08:34:44;99949.00;;;27.42;47.17
24558;BME280;12726;49.148;8.582;2023-05-21T08:37:30;99933.19;;;27.72;45.60
24558;BME280;12726;49.148;8.582;2023-05-21T08:40:15;99943.25;;;27.77;45.34
24558;BME280;12726;49.148;8.582;2023-05-21T08:43:00;99943.56;;;27.75;43.69
24558;BME280;12726;49.148;8.582;2023-05-21T08:45:52;99934.59;;;27.57;44.56
24558;BME280;12726;49.148;8.582;2023-05-21T08:48:38;99947.28;;;27.58;44.06
24558;BME280;12726;49.148;8.582;2023-05-21T08:51:25;99939.53;;;27.22;44.80
24558;BME280;12726;49.148;8.582;2023-05-21T08:54:11;99941.63;;;27.55;44.01
24558;BME280;12726;49.148;8.582;2023-05-21T08:56:57;99942.50;;;27.67;43.30
24558;BME280;12726;49.148;8.582;2023-05-21T08:59:44;99939.69;;;27.55;43.17
24558;BME280;12726;49.148;8.582;2023-05-21T09:02:32;99940.84;;;27.46;43.01
24558;BME280;12726;49.148;8.582;2023-05-21T09:05:18;99939.00;;;27.50;43.49
24558;BME280;12726;49.148;8.582;2023-05-21T09:08:05;99946.44;;;27.08;43.71
24558;BME280;12726;49.148;8.582;2023-05-21T09:10:51;99931.72;;;26.57;45.01
24558;BME280;12726;49.148;8.582;2023-05-21T09:13:37;99938.31;;;25.92;45.86
24558;BME280;12726;49.148;8.582;2023-05-21T09:16:24;99934.88;;;26.21;44.66
24558;BME280;12726;49.148;8.582;2023-05-21T09:19:10;99940.34;;;26.47;44.88
24558;BME280;12726;49.148;8.582;2023-05-21T09:22:00;99937.28;;;27.16;43.35
24558;BME280;12726;49.148;8.582;2023-05-21T09:24:50;99945.91;;;28.06;41.34
24558;BME280;12726;49.148;8.582;2023-05-21T09:27:36;99946.50;;;28.44;41.02
24558;BME280;12726;49.148;8.582;2023-05-21T09:30:21;99952.44;;;28.55;40.35
24558;BME280;12726;49.148;8.582;2023-05-21T09:33:06;99952.03;;;29.14;40.10
24558;BME280;12726;49.148;8.582;2023-05-21T09:35:51;99936.47;;;29.74;38.82
24558;BME280;12726;49.148;8.582;2023-05-21T09:38:37;99942.00;;;30.14;38.04
24558;BME280;12726;49.148;8.582;2023-05-21T09:41:31;99937.00;;;30.79;36.86
24558;BME280;12726;49.148;8.582;2023-05-21T09:44:18;99935.16;;;30.39;36.83
24558;BME280;12726;49.148;8.582;2023-05-21T09:47:07;99939.66;;;31.38;34.68
24558;BME280;12726;49.148;8.582;2023-05-21T09:49:56;99938.94;;;31.76;34.47
24558;BME280;12726;49.148;8.582;2023-05-21T09:52:42;99939.34;;;31.43;34.35
24558;BME280;12726;49.148;8.582;2023-05-21T09:55:27;99938.53;;;31.42;34.38
24558;BME280;12726;49.148;8.582;2023-05-21T09:58:16;99935.91;;;31.84;33.60
24558;BME280;12726;49.148;8.582;2023-05-21T10:01:01;99930.50;;;32.11;34.21
24558;BME280;12726;49.148;8.582;2023-05-21T10:03:49;99935.88;;;32.42;32.02
24558;BME280;12726;49.148;8.582;2023-05-21T10:06:41;99931.34;;;32.34;31.76
24558;BME280;12726;49.148;8.582;2023-05-21T10:09:28;99935.19;;;32.68;32.33
24558;BME280;12726;49.148;8.582;2023-05-21T10:12:16;99928.53;;;32.76;31.03
24558;BME280;12726;49.148;8.582;2023-05-21T10:15:04;99927.06;;;32.40;31.35
24558;BME280;12726;49.148;8.582;2023-05-21T10:17:54;99930.81;;;32.71;30.77
24558;BME280;12726;49.148;8.582;2023-05-21T10:20:41;99929.09;;;32.20;31.70
24558;BME280;12726;49.148;8.582;2023-05-21T10:23:27;99923.53;;;32.01;31.91
24558;BME280;12726;49.148;8.582;2023-05-21T10:26:14;99928.53;;;32.53;31.09
24558;BME280;12726;49.148;8.582;2023-05-21T10:29:01;99925.03;;;32.83;29.73
24558;BME280;12726;49.148;8.582;2023-05-21T10:31:48;99926.06;;;31.90;30.79
24558;BME280;12726;49.148;8.582;2023-05-21T10:34:36;99921.69;;;31.35;33.07
24558;BME280;12726;49.148;8.582;2023-05-21T10:37:24;99925.44;;;31.08;32.49
24558;BME280;12726;49.148;8.582;2023-05-21T10:40:11;99922.53;;;29.86;33.77
24558;BME280;12726;49.148;8.582;2023-05-21T10:43:17;99920.94;;;29.20;35.20
24558;BME280;12726;49.148;8.582;2023-05-21T10:49:37;99917.47;;;27.85;36.68
24558;BME280;12726;49.148;8.582;2023-05-21T10:52:42;99917.63;;;28.00;36.77
24558;BME280;12726;49.148;8.582;2023-05-21T10:55:41;99921.97;;;27.89;37.35
24558;BME280;12726;49.148;8.582;2023-05-21T10:58:47;99930.81;;;27.83;37.59
24558;BME280;12726;49.148;8.582;2023-05-21T11:01:36;99917.03;;;27.33;38.97
24558;BME280;12726;49.148;8.582;2023-05-21T11:04:24;99909.13;;;27.22;39.54
24558;BME280;12726;49.148;8.582;2023-05-21T11:07:11;99905.28;;;27.36;40.29
24558;BME280;12726;49.148;8.582;2023-05-21T11:10:28;99909.59;;;27.24;40.64
24558;BME280;12726;49.148;8.582;2023-05-21T11:13:14;99905.63;;;27.63;39.41
24558;BME280;12726;49.148;8.582;2023-05-21T11:16:15;99905.78;;;27.58;40.27
24558;BME280;12726;49.148;8.582;2023-05-21T11:19:01;99899.91;;;27.81;38.69
24558;BME280;12726;49.148;8.582;2023-05-21T11:21:49;99902.66;;;28.14;40.16
24558;BME280;12726;49.148;8.582;2023-05-21T11:24:40;99907.59;;;28.29;39.80
24558;BME280;12726;49.148;8.582;2023-05-21T11:27:32;99907.50;;;28.37;38.60
24558;BME280;12726;49.148;8.582;2023-05-21T11:30:18;99899.66;;;28.27;39.38
24558;BME280;12726;49.148;8.582;2023-05-21T11:33:16;99899.00;;;28.67;38.12
24558;BME280;12726;49.148;8.582;2023-05-21T11:36:11;99894.19;;;28.76;38.65
24558;BME280;12726;49.148;8.582;2023-05-21T11:39:07;99899.78;;;28.43;38.40
24558;BME280;12726;49.148;8.582;2023-05-21T11:41:56;99893.56;;;28.46;38.40
24558;BME280;12726;49.148;8.582;2023-05-21T11:44:43;99903.13;;;28.36;38.58
24558;BME280;12726;49.148;8.582;2023-05-21T11:47:28;99896.22;;;28.55;39.16
24558;BME280;12726;49.148;8.582;2023-05-21T11:50:15;99899.75;;;28.76;38.82
24558;BME280;12726;49.148;8.582;2023-05-21T11:53:01;99899.19;;;28.37;38.78
24558;BME280;12726;49.148;8.582;2023-05-21T11:55:46;99893.16;;;27.90;40.43
24558;BME280;12726;49.148;8.582;2023-05-21T11:58:32;99902.06;;;28.29;40.01
24558;BME280;12726;49.148;8.582;2023-05-21T12:01:21;99902.09;;;28.53;40.45
24558;BME280;12726;49.148;8.582;2023-05-21T12:04:06;99899.13;;;28.70;39.11
24558;BME280;12726;49.148;8.582;2023-05-21T12:06:52;99902.03;;;29.10;39.18
24558;BME280;12726;49.148;8.582;2023-05-21T12:09:38;99892.41;;;28.71;38.39
24558;BME280;12726;49.148;8.582;2023-05-21T12:12:25;99891.50;;;28.55;38.83
24558;BME280;12726;49.148;8.582;2023-05-21T12:15:12;99892.06;;;28.73;39.01
24558;BME280;12726;49.148;8.582;2023-05-21T12:17:57;99900.66;;;29.04;38.70
24558;BME280;12726;49.148;8.582;2023-05-21T12:20:43;99889.94;;;28.91;37.98
24558;BME280;12726;49.148;8.582;2023-05-21T12:23:28;99893.38;;;28.75;39.02
24558;BME280;12726;49.148;8.582;2023-05-21T12:26:14;99896.03;;;28.96;38.94
24558;BME280;12726;49.148;8.582;2023-05-21T12:29:00;99889.69;;;28.84;38.27
24558;BME280;12726;49.148;8.582;2023-05-21T12:31:50;99892.56;;;28.87;38.56
24558;BME280;12726;49.148;8.582;2023-05-21T12:34:39;99892.28;;;28.43;38.88
24558;BME280;12726;49.148;8.582;2023-05-21T12:37:27;99888.59;;;28.52;37.52
24558;BME280;12726;49.148;8.582;2023-05-21T12:40:14;99894.28;;;28.67;37.53
24558;BME280;12726;49.148;8.582;2023-05-21T12:43:00;99896.34;;;28.58;37.84
24558;BME280;12726;49.148;8.582;2023-05-21T12:45:46;99891.59;;;28.47;37.23
24558;BME280;12726;49.148;8.582;2023-05-21T12:48:33;99888.34;;;28.32;38.19
24558;BME280;12726;49.148;8.582;2023-05-21T12:51:18;99886.06;;;28.34;37.72
24558;BME280;12726;49.148;8.582;2023-05-21T12:54:10;99883.69;;;28.81;37.31
24558;BME280;12726;49.148;8.582;2023-05-21T12:56:56;99893.00;;;28.53;37.65
24558;BME280;12726;49.148;8.582;2023-05-21T12:59:46;99885.88;;;28.76;38.83
24558;BME280;12726;49.148;8.582;2023-05-21T13:02:33;99886.56;;;28.97;38.74
24558;BME280;12726;49.148;8.582;2023-05-21T13:05:20;99895.00;;;28.89;36.29
24558;BME280;12726;49.148;8.582;2023-05-21T13:08:06;99881.22;;;28.68;37.97
24558;BME280;12726;49.148;8.582;2023-05-21T13:10:53;99886.97;;;28.38;37.44
24558;BME280;12726;49.148;8.582;2023-05-21T13:13:38;99882.75;;;27.87;37.68
24558;BME280;12726;49.148;8.582;2023-05-21T13:16:24;99884.75;;;28.20;37.35
24558;BME280;12726;49.148;8.582;2023-05-21T13:19:09;99876.91;;;28.22;36.71
24558;BME280;12726;49.148;8.582;2023-05-21T13:21:56;99870.47;;;28.42;36.08
24558;BME280;12726;49.148;8.582;2023-05-21T13:24:41;99882.00;;;28.32;36.59
24558;BME280;12726;49.148;8.582;2023-05-21T13:27:26;99877.88;;;28.05;36.80
24558;BME280;12726;49.148;8.582;2023-05-21T13:30:12;99868.53;;;28.10;37.39
24558;BME280;12726;49.148;8.582;2023-05-21T13:32:57;99867.50;;;28.14;37.39
24558;BME280;12726;49.148;8.582;2023-05-21T13:35:43;99880.28;;;28.27;38.14
24558;BME280;12726;49.148;8.582;2023-05-21T13:38:35;99878.19;;;28.36;37.53
24558;BME280;12726;49.148;8.582;2023-05-21T13:41:20;99879.81;;;28.37;37.15
24558;BME280;12726;49.148;8.582;2023-05-21T13:44:06;99882.59;;;28.04;37.52
24558;BME280;12726;49.148;8.582;2023-05-21T13:46:51;99878.53;;;27.90;37.82
24558;BME280;12726;49.148;8.582;2023-05-21T13:49:37;99883.09;;;27.86;37.95
24558;BME280;12726;49.148;8.582;2023-05-21T13:52:23;99878.84;;;27.88;37.98
24558;BME280;12726;49.148;8.582;2023-05-21T13:55:10;99868.97;;;27.99;37.43
24558;BME280;12726;49.148;8.582;2023-05-21T13:57:55;99872.28;;;27.93;37.17
24558;BME280;12726;49.148;8.582;2023-05-21T14:00:40;99874.25;;;27.92;37.48
24558;BME280;12726;49.148;8.582;2023-05-21T14:03:26;99870.22;;;27.90;37.17
24558;BME280;12726;49.148;8.582;2023-05-21T14:06:11;99874.53;;;27.79;37.21
24558;BME280;12726;49.148;8.582;2023-05-21T14:08:57;99862.13;;;27.85;38.06
24558;BME280;12726;49.148;8.582;2023-05-21T14:11:44;99856.88;;;27.92;37.30
24558;BME280;12726;49.148;8.582;2023-05-21T14:14:30;99867.78;;;27.88;37.69
24558;BME280;12726;49.148;8.582;2023-05-21T14:17:16;99868.97;;;27.66;39.21
24558;BME280;12726;49.148;8.582;2023-05-21T14:20:02;99863.94;;;27.81;38.83
24558;BME280;12726;49.148;8.582;2023-05-21T14:22:47;99862.56;;;27.75;38.15
24558;BME280;12726;49.148;8.582;2023-05-21T14:25:33;99860.16;;;27.85;38.38
24558;BME280;12726;49.148;8.582;2023-05-21T14:28:20;99856.69;;;27.76;38.37
24558;BME280;12726;49.148;8.582;2023-05-21T14:31:05;99863.88;;;27.89;38.29
24558;BME280;12726;49.148;8.582;2023-05-21T14:33:50;99861.78;;;27.86;37.83
24558;BME280;12726;49.148;8.582;2023-05-21T14:36:35;99865.94;;;27.92;37.80
24558;BME280;12726;49.148;8.582;2023-05-21T14:39:21;99852.34;;;27.99;38.21
24558;BME280;12726;49.148;8.582;2023-05-21T14:42:07;99857.81;;;28.08;37.92
24558;BME280;12726;49.148;8.582;2023-05-21T14:44:53;99848.41;;;28.21;37.88